Time;durP1;ratioP1;P1;durP2;ratioP2;P2;SDS_P1;SDS_P2;PMS_P1;PMS_P2;Temp;Humidity;BMP_temperature;BMP_pressure;BME280_temperature;BME280_humidity;BME280_pressure;Samples;Min_cycle;Max_cycle;Signal;HPM_P1;HPM_P2
2021/10/23 00:01:45;;;;;;;13.10;7.17;;;10.70;99.90;;;;;;4189304;28;20788;-63
2021/10/23 00:03:46;;;;;;;12.90;6.70;;;10.70;99.90;;;;;;4190096;28;20074;-62
2021/10/23 00:05:47;;;;;;;10.07;5.90;;;10.70;99.90;;;;;;4189124;28;20090;-62
2021/10/23 00:07:48;;;;;;;11.60;5.77;;;10.60;99.90;;;;;;4189957;28;20047;-61
2021/10/23 00:09:50;;;;;;;11.27;6.20;;;10.60;99.90;;;;;;4188672;28;20556;-61
2021/10/23 00:11:53;;;;;;;10.03;6.30;;;10.60;99.90;;;;;;4190804;28;20024;-61
2021/10/23 00:13:54;;;;;;;16.20;6.93;;;10.60;99.90;;;;;;4189342;28;20052;-62
2021/10/23 00:15:55;;;;;;;11.20;6.13;;;10.60;99.90;;;;;;4188768;28;20118;-61
2021/10/23 00:17:56;;;;;;;11.67;5.83;;;10.60;99.90;;;;;;4189398;28;20074;-61
2021/10/23 00:20:01;;;;;;;14.60;6.40;;;10.60;99.90;;;;;;4189495;28;20032;-62
2021/10/23 00:22:03;;;;;;;11.97;5.90;;;10.60;99.90;;;;;;4185214;28;20451;-61
2021/10/23 00:24:04;;;;;;;13.57;6.70;;;10.60;99.90;;;;;;4173829;28;20059;-61
2021/10/23 00:26:05;;;;;;;13.70;6.70;;;10.60;99.90;;;;;;4187292;28;20086;-60
2021/10/23 00:28:06;;;;;;;10.40;5.37;;;10.60;99.90;;;;;;4188545;28;20040;-60
2021/10/23 00:30:08;;;;;;;9.50;4.97;;;10.60;99.90;;;;;;4188101;28;20416;-61
2021/10/23 00:32:09;;;;;;;11.40;6.60;;;10.60;99.90;;;;;;4188374;28;20025;-61
2021/10/23 00:34:10;;;;;;;16.80;8.97;;;10.60;99.90;;;;;;4185304;28;20052;-60
2021/10/23 00:36:11;;;;;;;16.70;8.47;;;10.50;99.90;;;;;;4188204;28;20106;-62
2021/10/23 00:38:12;;;;;;;15.47;8.30;;;10.50;99.90;;;;;;4189433;28;20029;-60
2021/10/23 00:40:14;;;;;;;14.30;7.87;;;10.50;99.90;;;;;;4187743;28;20118;-62
2021/10/23 00:42:15;;;;;;;12.63;6.67;;;10.50;99.90;;;;;;4187996;28;20097;-62
2021/10/23 00:44:38;;;;;;;9.87;5.97;;;10.50;99.90;;;;;;4187359;28;20446;-61
2021/10/23 00:46:39;;;;;;;10.03;5.40;;;10.50;99.90;;;;;;4185635;28;20048;-63
2021/10/23 00:48:40;;;;;;;9.53;5.13;;;10.50;99.90;;;;;;4187774;28;20518;-62
2021/10/23 00:50:44;;;;;;;10.57;5.67;;;10.60;99.90;;;;;;4188297;28;20097;-62
2021/10/23 00:52:48;;;;;;;10.87;5.57;;;10.60;99.90;;;;;;4187211;28;20145;-61
2021/10/23 00:54:50;;;;;;;12.40;4.97;;;10.60;99.90;;;;;;4188565;28;20032;-62
2021/10/23 00:56:52;;;;;;;9.70;4.90;;;10.60;99.90;;;;;;4186458;28;20090;-62
2021/10/23 00:58:54;;;;;;;10.07;4.80;;;10.60;99.90;;;;;;4186122;28;20102;-62
2021/10/23 01:00:55;;;;;;;8.07;4.37;;;10.60;99.90;;;;;;4185886;28;20315;-60
2021/10/23 01:02:57;;;;;;;9.60;5.00;;;10.60;99.90;;;;;;4190892;28;20025;-63
2021/10/23 01:04:58;;;;;;;7.57;4.43;;;10.60;99.90;;;;;;4190752;28;20458;-61
2021/10/23 01:06:59;;;;;;;9.37;4.03;;;10.60;99.90;;;;;;4190252;28;20021;-61
2021/10/23 01:09:00;;;;;;;15.27;5.00;;;10.60;99.90;;;;;;4190119;28;20082;-61
2021/10/23 01:11:02;;;;;;;10.23;4.93;;;10.70;99.90;;;;;;4190654;28;20083;-62
2021/10/23 01:13:04;;;;;;;8.23;4.20;;;10.70;99.90;;;;;;4177763;28;20488;-62
2021/10/23 01:15:16;;;;;;;8.07;4.20;;;10.60;99.90;;;;;;4174449;28;20074;-60
2021/10/23 01:17:23;;;;;;;8.57;4.97;;;10.60;99.90;;;;;;4179899;28;20036;-60
2021/10/23 01:19:24;;;;;;;12.43;5.20;;;10.60;99.90;;;;;;4190828;28;20040;-62
2021/10/23 01:21:26;;;;;;;7.73;4.63;;;10.50;99.90;;;;;;4189455;28;20828;-61
2021/10/23 01:23:27;;;;;;;14.30;5.17;;;10.50;99.90;;;;;;4190391;28;20036;-61
2021/10/23 01:25:30;;;;;;;8.23;4.50;;;10.50;99.90;;;;;;4191866;28;20900;-61
2021/10/23 01:27:31;;;;;;;6.67;4.30;;;10.40;99.90;;;;;;4188795;28;20094;-60
2021/10/23 01:29:32;;;;;;;7.70;4.93;;;10.50;99.90;;;;;;4192032;28;20074;-61
2021/10/23 01:31:33;;;;;;;10.27;4.30;;;10.40;99.90;;;;;;4190007;28;20060;-60
2021/10/23 01:33:34;;;;;;;9.17;4.50;;;10.40;99.90;;;;;;4190575;28;20113;-63
2021/10/23 01:35:37;;;;;;;10.17;4.73;;;10.40;99.90;;;;;;4190087;28;20024;-61
2021/10/23 01:37:40;;;;;;;8.10;4.07;;;10.40;99.90;;;;;;4190852;28;20074;-61
2021/10/23 01:39:41;;;;;;;7.73;4.63;;;10.40;99.90;;;;;;4189901;28;20036;-61
2021/10/23 01:41:43;;;;;;;7.97;4.27;;;10.40;99.90;;;;;;4190479;28;20082;-60
2021/10/23 01:43:44;;;;;;;9.00;4.80;;;10.40;99.90;;;;;;4190685;28;20102;-61
2021/10/23 01:45:45;;;;;;;9.33;6.10;;;10.40;99.90;;;;;;4190058;28;20033;-60
2021/10/23 01:47:46;;;;;;;13.20;5.90;;;10.30;99.90;;;;;;4191172;28;20075;-60
2021/10/23 01:49:48;;;;;;;8.80;4.70;;;10.30;99.90;;;;;;4189831;28;20094;-61
2021/10/23 01:51:49;;;;;;;12.07;6.70;;;10.30;99.90;;;;;;4189735;28;20086;-61
2021/10/23 01:53:50;;;;;;;13.73;6.00;;;10.30;99.90;;;;;;4189670;28;20488;-63
2021/10/23 01:55:52;;;;;;;10.77;5.67;;;10.30;99.90;;;;;;4189963;28;20472;-60
2021/10/23 01:57:56;;;;;;;9.10;4.53;;;10.30;99.90;;;;;;4190099;28;20479;-63
2021/10/23 01:59:57;;;;;;;8.87;6.00;;;10.30;99.90;;;;;;4190697;28;20593;-61
2021/10/23 02:01:58;;;;;;;9.67;5.37;;;10.30;99.90;;;;;;4189256;28;21167;-60
2021/10/23 02:03:59;;;;;;;9.80;4.80;;;10.20;99.90;;;;;;4187376;28;20438;-62
2021/10/23 02:06:00;;;;;;;10.13;4.70;;;10.30;99.90;;;;;;4189967;28;20452;-61
2021/10/23 02:08:01;;;;;;;8.90;4.70;;;10.20;99.90;;;;;;4190243;28;20123;-60
2021/10/23 02:10:04;;;;;;;6.80;4.77;;;10.30;99.90;;;;;;4189000;28;20028;-61
2021/10/23 02:12:06;;;;;;;11.70;5.27;;;10.20;99.90;;;;;;4189178;28;20070;-64
2021/10/23 02:14:07;;;;;;;11.93;5.30;;;10.20;99.90;;;;;;4189381;28;20041;-61
2021/10/23 02:16:08;;;;;;;6.87;4.50;;;10.20;99.90;;;;;;4190079;28;20032;-62
2021/10/23 02:18:09;;;;;;;10.00;4.30;;;10.20;99.90;;;;;;4189760;28;20044;-61
2021/10/23 02:20:12;;;;;;;6.33;3.80;;;10.20;99.90;;;;;;4189621;28;20041;-61
2021/10/23 02:22:13;;;;;;;7.53;3.43;;;10.20;99.90;;;;;;4190361;28;20484;-61
2021/10/23 02:24:14;;;;;;;7.90;4.10;;;10.20;99.90;;;;;;4188428;28;20048;-61
2021/10/23 02:26:15;;;;;;;11.83;6.47;;;10.20;99.90;;;;;;4190190;28;20527;-60
2021/10/23 02:28:17;;;;;;;13.33;7.80;;;10.20;99.90;;;;;;4172997;28;20044;-60
2021/10/23 02:30:19;;;;;;;15.23;7.47;;;10.00;99.90;;;;;;4186419;28;20421;-60
2021/10/23 02:32:20;;;;;;;13.80;8.10;;;9.90;99.90;;;;;;4188651;28;20094;-61
2021/10/23 02:34:21;;;;;;;16.73;7.90;;;9.70;99.90;;;;;;4189368;28;20067;-59
2021/10/23 02:36:22;;;;;;;15.47;8.37;;;9.60;99.90;;;;;;4189334;28;20071;-61
2021/10/23 02:38:23;;;;;;;14.73;7.57;;;9.60;99.90;;;;;;4190099;28;20070;-60
2021/10/23 02:40:25;;;;;;;13.07;6.80;;;9.60;99.90;;;;;;4189551;28;20024;-61
2021/10/23 02:42:26;;;;;;;12.60;6.33;;;9.70;99.90;;;;;;4188853;28;20084;-60
2021/10/23 02:44:27;;;;;;;8.53;4.73;;;9.70;99.90;;;;;;4188627;28;20430;-59
2021/10/23 02:46:28;;;;;;;8.63;4.67;;;9.70;99.90;;;;;;4189025;28;20505;-61
2021/10/23 02:48:29;;;;;;;9.17;4.20;;;9.80;99.90;;;;;;4189613;28;20086;-61
2021/10/23 02:50:30;;;;;;;9.43;4.57;;;9.80;99.90;;;;;;4188355;28;20118;-60
2021/10/23 02:52:32;;;;;;;14.07;6.53;;;9.80;99.90;;;;;;4189922;28;20059;-60
2021/10/23 02:54:33;;;;;;;13.83;7.27;;;9.80;99.90;;;;;;4185667;28;20860;-62
2021/10/23 02:56:34;;;;;;;16.80;9.30;;;9.70;99.90;;;;;;4171950;28;20374;-61
2021/10/23 02:58:35;;;;;;;14.77;8.57;;;9.60;99.90;;;;;;4186379;28;20048;-62
2021/10/23 03:00:36;;;;;;;17.23;9.60;;;9.60;99.90;;;;;;4189927;28;20020;-61
2021/10/23 03:02:37;;;;;;;15.63;8.03;;;9.50;99.90;;;;;;4186940;28;20037;-61
2021/10/23 03:04:40;;;;;;;12.63;8.37;;;9.50;99.90;;;;;;4188294;28;20646;-63
2021/10/23 03:06:45;;;;;;;17.07;8.53;;;9.50;99.90;;;;;;4187220;28;20097;-61
2021/10/23 03:08:46;;;;;;;18.07;8.50;;;9.50;99.90;;;;;;4189409;28;20032;-60
2021/10/23 03:10:47;;;;;;;15.10;8.00;;;9.50;99.90;;;;;;4179356;28;20042;-62
2021/10/23 03:12:48;;;;;;;14.07;7.87;;;9.50;99.90;;;;;;4188150;28;20078;-62
2021/10/23 03:14:50;;;;;;;13.73;8.20;;;9.50;99.90;;;;;;4188591;28;20086;-61
2021/10/23 03:16:51;;;;;;;18.47;7.73;;;9.40;99.90;;;;;;4188666;28;20037;-61
2021/10/23 03:18:52;;;;;;;13.50;7.67;;;9.40;99.90;;;;;;4189069;28;20053;-61
2021/10/23 03:20:54;;;;;;;17.00;8.20;;;9.30;99.90;;;;;;4188404;28;20074;-61
2021/10/23 03:22:55;;;;;;;20.57;7.67;;;9.30;99.90;;;;;;4188155;28;20098;-60
2021/10/23 03:24:56;;;;;;;16.60;7.87;;;9.30;99.90;;;;;;4192294;28;20677;-61
2021/10/23 03:26:57;;;;;;;17.60;7.87;;;9.30;99.90;;;;;;4199855;28;20060;-63
2021/10/23 03:28:58;;;;;;;17.13;8.57;;;9.20;99.90;;;;;;4189978;28;20693;-63
2021/10/23 03:30:59;;;;;;;15.40;8.27;;;9.00;99.90;;;;;;4189227;28;20036;-60
2021/10/23 03:33:01;;;;;;;11.47;7.40;;;9.00;99.90;;;;;;4188448;28;20044;-61
2021/10/23 03:35:03;;;;;;;12.37;6.83;;;9.00;99.90;;;;;;4176993;28;20099;-62
2021/10/23 03:37:04;;;;;;;13.27;6.63;;;9.00;99.90;;;;;;4172224;28;20024;-60
2021/10/23 03:39:06;;;;;;;15.10;7.70;;;9.00;99.90;;;;;;4178983;28;20040;-63
2021/10/23 03:41:07;;;;;;;15.40;7.37;;;9.00;99.90;;;;;;4179046;28;20102;-61
2021/10/23 03:43:09;;;;;;;12.17;6.53;;;8.90;99.90;;;;;;4177637;28;20040;-62
2021/10/23 03:45:10;;;;;;;14.17;6.43;;;8.90;99.90;;;;;;4188647;28;20044;-61
2021/10/23 03:47:11;;;;;;;11.57;6.30;;;9.00;99.90;;;;;;4188195;28;20044;-61
2021/10/23 03:49:13;;;;;;;9.43;5.50;;;9.00;99.90;;;;;;4188094;28;20048;-61
2021/10/23 03:51:14;;;;;;;10.60;6.57;;;9.00;99.90;;;;;;4188328;28;20442;-62
2021/10/23 03:53:15;;;;;;;10.13;5.97;;;8.90;99.90;;;;;;4188823;28;20070;-60
2021/10/23 03:55:16;;;;;;;12.10;6.73;;;8.90;99.90;;;;;;4188414;28;20037;-60
2021/10/23 03:57:18;;;;;;;8.13;5.30;;;8.90;99.90;;;;;;4188635;28;20028;-62
2021/10/23 03:59:19;;;;;;;11.33;5.73;;;8.80;99.90;;;;;;4188256;28;20040;-61
2021/10/23 04:01:20;;;;;;;11.93;6.97;;;8.80;99.90;;;;;;4188327;28;20087;-62
2021/10/23 04:03:21;;;;;;;12.20;6.70;;;8.70;99.90;;;;;;4187255;28;20520;-63
2021/10/23 04:05:23;;;;;;;38.70;12.00;;;8.60;99.90;;;;;;4188220;28;20121;-62
2021/10/23 04:07:24;;;;;;;18.33;8.83;;;8.60;99.90;;;;;;4188026;28;20434;-61
2021/10/23 04:09:25;;;;;;;14.23;9.17;;;8.40;99.90;;;;;;4188056;28;20036;-61
2021/10/23 04:11:26;;;;;;;17.53;8.97;;;8.40;99.90;;;;;;4188177;28;20032;-60
2021/10/23 04:13:28;;;;;;;19.93;8.80;;;8.30;99.90;;;;;;4186299;28;20518;-62
2021/10/23 04:15:29;;;;;;;23.67;13.10;;;8.20;99.90;;;;;;4173319;28;20365;-62
2021/10/23 04:17:30;;;;;;;15.20;8.20;;;8.20;99.90;;;;;;4188339;28;20074;-60
2021/10/23 04:19:31;;;;;;;16.83;9.17;;;8.10;99.90;;;;;;4187613;28;20040;-61
2021/10/23 04:21:32;;;;;;;21.63;9.43;;;8.10;99.90;;;;;;4188227;28;20142;-61
2021/10/23 04:23:33;;;;;;;21.33;9.67;;;8.00;99.90;;;;;;4188342;28;20572;-61
2021/10/23 04:25:35;;;;;;;16.80;9.40;;;8.00;99.90;;;;;;4188011;28;20089;-61
2021/10/23 04:27:36;;;;;;;15.07;7.53;;;8.10;99.90;;;;;;4188386;28;20097;-61
2021/10/23 04:29:37;;;;;;;27.73;8.77;;;8.00;99.90;;;;;;4178409;28;20087;-61
2021/10/23 04:31:38;;;;;;;20.83;8.93;;;8.10;99.90;;;;;;4188096;28;20101;-62
2021/10/23 04:33:39;;;;;;;15.60;7.43;;;8.10;99.90;;;;;;4188812;28;20524;-62
2021/10/23 04:35:40;;;;;;;15.17;7.60;;;8.00;99.90;;;;;;4191918;28;20106;-60
2021/10/23 04:37:42;;;;;;;12.87;7.57;;;7.90;99.90;;;;;;4190930;28;20086;-63
2021/10/23 04:39:43;;;;;;;15.00;8.40;;;7.90;99.90;;;;;;4190759;28;20036;-62
2021/10/23 04:41:44;;;;;;;14.67;8.00;;;8.00;99.90;;;;;;4191128;28;21017;-62
2021/10/23 04:43:45;;;;;;;13.77;8.13;;;8.00;99.90;;;;;;4190385;28;20033;-62
2021/10/23 04:45:47;;;;;;;15.37;7.77;;;8.10;99.90;;;;;;4191799;28;20522;-62
2021/10/23 04:47:48;;;;;;;12.53;8.10;;;8.10;99.90;;;;;;4191288;28;20093;-61
2021/10/23 04:49:49;;;;;;;20.47;9.27;;;8.10;99.90;;;;;;4191119;28;20528;-60
2021/10/23 04:51:50;;;;;;;12.77;8.27;;;8.20;99.90;;;;;;4190659;28;20028;-62
2021/10/23 04:53:51;;;;;;;20.37;9.97;;;8.20;99.90;;;;;;4191395;28;20086;-61
2021/10/23 04:55:53;;;;;;;21.43;9.70;;;8.20;99.90;;;;;;4190849;28;20141;-61
2021/10/23 04:57:57;;;;;;;17.53;9.10;;;8.10;99.90;;;;;;4190654;28;20476;-62
2021/10/23 04:59:58;;;;;;;21.40;10.47;;;8.10;99.90;;;;;;4189474;28;20177;-62
2021/10/23 05:01:59;;;;;;;15.60;8.03;;;8.10;99.90;;;;;;4190550;28;20109;-62
2021/10/23 05:04:00;;;;;;;14.40;7.87;;;8.00;99.90;;;;;;4190669;28;20032;-61
2021/10/23 05:06:02;;;;;;;15.60;7.80;;;8.00;99.90;;;;;;4191679;28;20840;-61
2021/10/23 05:08:03;;;;;;;13.93;7.73;;;8.00;99.90;;;;;;4189531;28;20437;-61
2021/10/23 05:10:05;;;;;;;20.47;8.23;;;7.90;99.90;;;;;;4190769;28;20181;-62
2021/10/23 05:12:06;;;;;;;15.63;7.47;;;8.00;99.90;;;;;;4190486;28;20141;-61
2021/10/23 05:14:07;;;;;;;15.53;9.03;;;8.20;99.90;;;;;;4190714;28;20036;-62
2021/10/23 05:16:08;;;;;;;17.73;8.20;;;8.40;99.90;;;;;;4190875;28;21375;-61
2021/10/23 05:18:09;;;;;;;16.27;8.20;;;8.60;99.90;;;;;;4189781;28;20040;-62
2021/10/23 05:20:11;;;;;;;16.03;7.77;;;8.60;99.90;;;;;;4190004;28;20048;-63
2021/10/23 05:22:12;;;;;;;13.23;7.43;;;8.80;99.90;;;;;;4191093;28;20530;-60
2021/10/23 05:24:13;;;;;;;13.50;7.90;;;8.80;99.90;;;;;;4191065;28;20028;-62
2021/10/23 05:26:15;;;;;;;12.03;7.23;;;8.80;99.90;;;;;;4188929;28;20098;-61
2021/10/23 05:28:16;;;;;;;11.43;7.07;;;8.80;99.90;;;;;;4190166;28;20094;-61
2021/10/23 05:30:17;;;;;;;13.23;7.30;;;8.80;99.90;;;;;;4190945;28;20102;-60
2021/10/23 05:32:19;;;;;;;19.30;8.73;;;8.80;99.90;;;;;;4190848;28;20138;-62
2021/10/23 05:34:21;;;;;;;14.60;7.77;;;8.80;99.90;;;;;;4189791;28;20454;-61
2021/10/23 05:36:22;;;;;;;17.17;8.40;;;8.70;99.90;;;;;;4189770;28;20050;-61
2021/10/23 05:38:23;;;;;;;10.80;6.57;;;8.60;99.90;;;;;;4189397;28;20465;-61
2021/10/23 05:40:24;;;;;;;11.63;6.33;;;8.60;99.90;;;;;;4190547;28;20041;-61
2021/10/23 05:42:25;;;;;;;14.83;6.77;;;8.50;99.90;;;;;;4189610;28;20032;-61
2021/10/23 05:44:26;;;;;;;22.90;10.43;;;8.60;99.90;;;;;;4189375;28;20082;-63
2021/10/23 05:46:27;;;;;;;16.37;9.87;;;8.80;99.90;;;;;;4188792;28;20048;-60
2021/10/23 05:48:29;;;;;;;17.43;9.73;;;9.00;99.90;;;;;;4189411;28;20070;-61
2021/10/23 05:50:30;;;;;;;27.60;11.67;;;9.30;99.90;;;;;;4190081;28;21000;-62
2021/10/23 05:52:31;;;;;;;25.23;11.67;;;9.60;99.90;;;;;;4189725;28;20569;-61
2021/10/23 05:54:38;;;;;;;27.10;12.40;;;9.80;99.90;;;;;;4189590;28;20074;-63
2021/10/23 05:56:39;;;;;;;22.70;12.10;;;9.90;99.90;;;;;;4189630;28;20040;-62
2021/10/23 05:58:41;;;;;;;24.83;12.63;;;10.20;99.90;;;;;;4188485;28;20052;-63
2021/10/23 06:00:49;;;;;;;34.43;13.60;;;10.50;99.90;;;;;;4188222;28;20091;-63
2021/10/23 06:02:50;;;;;;;24.10;13.17;;;10.60;99.90;;;;;;4173830;28;20032;-61
2021/10/23 06:04:54;;;;;;;30.33;12.13;;;10.90;99.90;;;;;;4180414;28;20028;-62
2021/10/23 06:06:55;;;;;;;25.03;11.10;;;11.10;99.90;;;;;;4189533;28;20476;-62
2021/10/23 06:08:56;;;;;;;25.20;12.30;;;11.10;99.90;;;;;;4187756;28;20081;-62
2021/10/23 06:10:57;;;;;;;24.57;11.63;;;11.30;99.90;;;;;;4179898;28;20037;-63
2021/10/23 06:12:59;;;;;;;27.77;10.60;;;11.90;99.90;;;;;;4189057;28;20082;-62
2021/10/23 06:15:00;;;;;;;20.77;9.13;;;12.60;99.90;;;;;;4190285;28;20041;-64
2021/10/23 06:17:05;;;;;;;23.13;10.53;;;13.10;99.90;;;;;;4189354;28;20034;-61
2021/10/23 06:19:06;;;;;;;23.87;9.63;;;13.40;99.90;;;;;;4189966;28;20078;-61
2021/10/23 06:21:07;;;;;;;26.17;10.63;;;13.80;99.90;;;;;;4189447;28;20036;-61
2021/10/23 06:23:08;;;;;;;22.17;9.07;;;14.10;99.90;;;;;;4188719;28;20082;-63
2021/10/23 06:25:09;;;;;;;19.10;10.47;;;14.30;99.90;;;;;;4189140;28;20079;-62
2021/10/23 06:27:10;;;;;;;23.40;11.85;;;14.50;99.90;;;;;;4188614;28;20508;-62
2021/10/23 06:29:12;;;;;;;21.73;12.53;;;14.60;99.90;;;;;;4190280;28;20017;-61
2021/10/23 06:31:13;;;;;;;28.27;11.48;;;14.90;99.90;;;;;;4189486;28;20700;-60
2021/10/23 06:33:14;;;;;;;20.25;9.85;;;15.10;99.90;;;;;;4189551;28;20040;-62
2021/10/23 06:35:15;;;;;;;30.23;16.75;;;15.40;99.90;;;;;;4189247;28;20059;-63
2021/10/23 06:37:19;;;;;;;23.25;11.43;;;15.50;99.90;;;;;;4188005;28;20041;-62
2021/10/23 06:39:20;;;;;;;18.33;9.63;;;15.80;99.90;;;;;;4188601;28;20036;-61
2021/10/23 06:41:21;;;;;;;18.20;9.63;;;16.20;99.90;;;;;;4189734;28;20050;-61
2021/10/23 06:43:24;;;;;;;10.30;6.93;;;16.30;99.90;;;;;;4188044;28;20044;-62
2021/10/23 06:45:25;;;;;;;8.50;5.93;;;16.30;99.90;;;;;;4171019;28;20193;-62
2021/10/23 06:47:27;;;;;;;10.18;5.90;;;16.30;99.70;;;;;;4168780;28;20044;-62
2021/10/23 06:49:28;;;;;;;7.78;5.13;;;16.30;99.30;;;;;;4187197;28;20025;-62
2021/10/23 06:51:29;;;;;;;12.63;5.65;;;16.20;99.00;;;;;;4187194;28;20114;-63
2021/10/23 06:53:30;;;;;;;9.82;5.40;;;16.10;98.70;;;;;;4186257;28;20075;-63
2021/10/23 06:55:31;;;;;;;12.00;4.88;;;16.30;98.80;;;;;;4187536;28;20115;-64
2021/10/23 06:57:33;;;;;;;4.35;2.67;;;16.30;98.30;;;;;;4181805;28;20033;-63
2021/10/23 06:59:34;;;;;;;10.05;2.90;;;15.90;97.50;;;;;;4188154;28;20028;-61
2021/10/23 07:01:35;;;;;;;3.97;1.92;;;15.60;97.00;;;;;;4177302;28;20091;-62
2021/10/23 07:03:36;;;;;;;6.47;2.35;;;15.40;96.30;;;;;;4182863;28;20709;-62
2021/10/23 07:05:39;;;;;;;4.22;1.80;;;15.10;95.50;;;;;;4186829;28;20036;-62
2021/10/23 07:07:40;;;;;;;9.73;2.20;;;14.80;94.30;;;;;;4181951;28;20036;-63
2021/10/23 07:09:41;;;;;;;7.10;1.80;;;14.40;94.50;;;;;;4187465;28;20090;-64
2021/10/23 07:11:44;;;;;;;7.53;1.90;;;14.00;94.10;;;;;;4187100;28;20078;-66
2021/10/23 07:13:45;;;;;;;13.37;2.23;;;13.90;94.10;;;;;;4186558;28;20025;-63
2021/10/23 07:15:46;;;;;;;4.73;1.40;;;14.00;93.80;;;;;;4187592;28;20106;-61
2021/10/23 07:17:47;;;;;;;4.30;1.60;;;13.50;93.00;;;;;;4181604;28;20149;-63
2021/10/23 07:19:49;;;;;;;4.63;1.93;;;13.20;93.60;;;;;;4187524;28;20349;-62
2021/10/23 07:21:50;;;;;;;3.53;1.43;;;13.40;93.90;;;;;;4186214;28;20101;-65
2021/10/23 07:23:53;;;;;;;4.77;1.80;;;13.70;93.60;;;;;;4186563;28;20048;-63
2021/10/23 07:25:56;;;;;;;5.50;1.63;;;13.80;93.60;;;;;;4185963;28;20045;-65
2021/10/23 07:27:57;;;;;;;3.30;1.47;;;14.00;93.60;;;;;;4187413;28;20060;-62
2021/10/23 07:29:58;;;;;;;13.03;2.43;;;14.10;92.50;;;;;;4189251;28;20028;-63
2021/10/23 07:31:59;;;;;;;4.80;2.03;;;13.80;92.90;;;;;;4188723;28;20098;-63
2021/10/23 07:34:00;;;;;;;6.10;1.60;;;13.80;93.10;;;;;;4185096;28;20075;-63
2021/10/23 07:36:02;;;;;;;4.30;1.53;;;13.70;92.60;;;;;;4171579;28;20420;-64
2021/10/23 07:38:04;;;;;;;4.80;2.10;;;13.70;93.10;;;;;;4170253;28;20083;-64
2021/10/23 07:40:11;;;;;;;4.43;1.60;;;13.80;93.00;;;;;;4171969;28;20146;-63
2021/10/23 07:42:12;;;;;;;5.57;1.97;;;13.90;93.00;;;;;;4181387;28;20094;-64
2021/10/23 07:44:13;;;;;;;5.80;1.50;;;14.20;92.80;;;;;;4187473;28;20048;-62
2021/10/23 07:46:15;;;;;;;8.70;2.47;;;14.00;92.40;;;;;;4188313;28;20105;-63
2021/10/23 07:48:17;;;;;;;12.93;3.30;;;13.70;92.30;;;;;;4175372;28;20520;-62
2021/10/23 07:50:19;;;;;;;8.70;1.87;;;13.20;92.90;;;;;;4172000;28;20082;-62
2021/10/23 07:52:21;;;;;;;3.87;1.27;;;13.30;93.30;;;;;;4171613;28;20086;-62
2021/10/23 07:54:22;;;;;;;4.10;1.67;;;13.60;93.20;;;;;;4182511;28;20545;-63
2021/10/23 07:56:23;;;;;;;5.07;1.67;;;13.90;93.00;;;;;;4188037;28;20554;-64
2021/10/23 07:58:25;;;;;;;4.63;1.37;;;14.20;92.80;;;;;;4187157;28;20404;-63
2021/10/23 08:00:26;;;;;;;3.30;1.50;;;14.40;92.70;;;;;;4188112;28;20037;-62
2021/10/23 08:02:27;;;;;;;9.43;1.90;;;14.70;92.50;;;;;;4187839;28;20585;-63
2021/10/23 08:04:29;;;;;;;5.97;1.50;;;14.80;92.20;;;;;;4188375;28;20032;-61
2021/10/23 08:06:30;;;;;;;2.73;1.30;;;15.10;92.10;;;;;;4187312;28;20052;-63
2021/10/23 08:08:32;;;;;;;2.20;1.37;;;15.60;91.60;;;;;;4191007;28;20122;-62
2021/10/23 08:10:34;;;;;;;4.70;1.77;;;15.70;91.20;;;;;;4192715;28;20074;-63
2021/10/23 08:12:35;;;;;;;3.07;1.60;;;15.70;91.20;;;;;;4193649;28;20024;-63
2021/10/23 08:14:36;;;;;;;5.10;1.63;;;15.70;91.10;;;;;;4186603;28;20025;-63
2021/10/23 08:16:37;;;;;;;3.73;1.73;;;15.70;91.00;;;;;;4193541;28;20467;-63
2021/10/23 08:18:38;;;;;;;5.97;1.63;;;15.90;90.90;;;;;;4193089;28;20106;-63
2021/10/23 08:20:40;;;;;;;5.63;1.70;;;15.90;90.60;;;;;;4192972;28;20036;-63
2021/10/23 08:22:41;;;;;;;15.48;2.72;;;16.00;90.30;;;;;;4192381;28;20048;-61
2021/10/23 08:24:42;;;;;;;9.88;2.08;;;15.50;90.50;;;;;;4193923;28;20032;-63
2021/10/23 08:26:44;;;;;;;7.13;2.45;;;15.50;90.60;;;;;;4193416;28;20106;-63
2021/10/23 08:28:45;;;;;;;4.73;1.97;;;15.30;90.20;;;;;;4193377;28;20044;-62
2021/10/23 08:30:47;;;;;;;6.13;2.00;;;15.20;90.50;;;;;;4190334;28;20053;-63
2021/10/23 08:32:49;;;;;;;4.40;1.33;;;14.90;90.30;;;;;;4184786;28;20090;-63
2021/10/23 08:34:50;;;;;;;18.07;2.33;;;14.60;89.90;;;;;;4193375;28;20033;-63
2021/10/23 08:36:51;;;;;;;4.20;1.87;;;14.00;90.10;;;;;;4192684;28;20044;-62
2021/10/23 08:38:52;;;;;;;4.53;1.67;;;13.90;90.40;;;;;;4177312;28;20045;-64
2021/10/23 08:40:54;;;;;;;6.57;1.80;;;14.20;90.70;;;;;;4176432;28;20071;-64
2021/10/23 08:42:55;;;;;;;2.57;1.30;;;14.50;90.40;;;;;;4176797;28;20098;-61
2021/10/23 08:44:59;;;;;;;7.40;1.77;;;14.60;90.20;;;;;;4176317;28;20067;-63
2021/10/23 08:47:01;;;;;;;3.60;1.73;;;14.70;90.00;;;;;;4177166;28;20037;-60
2021/10/23 08:49:04;;;;;;;4.07;1.77;;;14.80;90.00;;;;;;4187717;28;20399;-63
2021/10/23 08:51:06;;;;;;;5.93;1.70;;;15.20;89.60;;;;;;4193451;28;20028;-64
2021/10/23 08:53:08;;;;;;;4.53;1.37;;;15.30;89.10;;;;;;4193039;28;20449;-64
2021/10/23 08:55:09;;;;;;;3.00;1.03;;;15.10;86.50;;;;;;4194099;28;20070;-64
2021/10/23 08:57:10;;;;;;;6.40;1.73;;;14.70;86.60;;;;;;4192242;28;20094;-64
2021/10/23 08:59:12;;;;;;;7.05;1.35;;;14.40;86.00;;;;;;4192752;28;20040;-63
2021/10/23 09:01:14;;;;;;;3.17;1.20;;;14.20;87.00;;;;;;4193579;28;20082;-63
2021/10/23 09:03:16;;;;;;;4.43;1.73;;;14.20;86.00;;;;;;4193274;28;20025;-63
2021/10/23 09:05:18;;;;;;;3.60;1.27;;;14.30;85.60;;;;;;4193455;28;20028;-63
2021/10/23 09:07:21;;;;;;;2.37;1.30;;;14.30;85.40;;;;;;4192693;28;20119;-63
2021/10/23 09:09:22;;;;;;;6.20;1.03;;;14.50;84.80;;;;;;4191835;28;20470;-63
2021/10/23 09:11:32;;;;;;;15.57;2.90;;;14.40;84.80;;;;;;4192933;28;20036;-63
2021/10/23 09:13:37;;;;;;;3.93;1.40;;;14.00;84.30;;;;;;4180695;28;20468;-63
2021/10/23 09:15:40;;;;;;;8.87;1.70;;;13.90;84.40;;;;;;4175917;28;20047;-64
2021/10/23 09:17:47;;;;;;;17.83;3.53;;;13.60;83.60;;;;;;4176975;28;20722;-65
2021/10/23 09:19:51;;;;;;;21.37;3.73;;;13.50;83.80;;;;;;4174182;28;20059;-63
2021/10/23 09:21:53;;;;;;;3.97;0.80;;;13.50;84.60;;;;;;4172468;28;20037;-63
2021/10/23 09:23:54;;;;;;;8.83;1.90;;;13.40;82.40;;;;;;4185259;28;20040;-63
2021/10/23 09:25:55;;;;;;;8.90;1.77;;;13.20;82.50;;;;;;4190394;28;20073;-64
2021/10/23 09:28:05;;;;;;;19.97;3.30;;;13.10;82.70;;;;;;4189224;28;20052;-63
2021/10/23 09:30:12;;;;;;;17.10;3.47;;;13.10;83.40;;;;;;4190650;28;20094;-62
2021/10/23 09:32:13;;;;;;;14.50;2.03;;;13.00;81.80;;;;;;4188766;28;20139;-63
2021/10/23 09:34:19;;;;;;;8.00;2.17;;;12.90;81.70;;;;;;4189819;28;20044;-63
2021/10/23 09:36:23;;;;;;;19.33;3.30;;;12.90;83.60;;;;;;4189771;28;20028;-63
2021/10/23 09:38:26;;;;;;;11.00;1.57;;;12.90;83.60;;;;;;4190415;28;20082;-63
2021/10/23 09:40:29;;;;;;;12.67;1.87;;;13.10;83.40;;;;;;4189894;28;20098;-63
2021/10/23 09:42:30;;;;;;;10.53;1.80;;;13.10;82.40;;;;;;4190016;28;20032;-63
2021/10/23 09:44:32;;;;;;;3.73;0.80;;;12.90;81.90;;;;;;4189619;28;20024;-63
2021/10/23 09:46:33;;;;;;;7.13;1.23;;;12.60;81.60;;;;;;4189838;28;20567;-63
2021/10/23 09:48:51;;;;;;;3.83;1.10;;;12.70;82.50;;;;;;4189681;28;20133;-61
2021/10/23 09:51:10;;;;;;;5.00;1.13;;;12.90;81.10;;;;;;4189434;28;20089;-62
2021/10/23 09:53:11;;;;;;;2.57;1.13;;;13.20;80.50;;;;;;4189942;28;20028;-63
2021/10/23 09:55:12;;;;;;;1.87;1.20;;;13.30;79.70;;;;;;4189782;28;20576;-63
2021/10/23 09:57:14;;;;;;;3.60;0.70;;;13.30;79.40;;;;;;4189191;28;20150;-62
2021/10/23 09:59:25;;;;;;;7.00;1.87;;;13.30;77.70;;;;;;4189498;28;20036;-63
2021/10/23 10:01:40;;;;;;;3.83;1.00;;;13.40;79.80;;;;;;4189839;28;20370;-63
2021/10/23 10:03:42;;;;;;;3.57;0.97;;;13.60;79.60;;;;;;4189077;28;20102;-63
2021/10/23 10:05:43;;;;;;;3.67;1.00;;;13.70;80.00;;;;;;4188309;28;20113;-63
2021/10/23 10:07:45;;;;;;;5.07;0.70;;;13.60;77.30;;;;;;4189332;28;20036;-63
2021/10/23 10:09:47;;;;;;;3.47;0.93;;;13.60;79.10;;;;;;4189798;28;20028;-63
2021/10/23 10:11:49;;;;;;;4.27;1.00;;;13.70;79.30;;;;;;4189241;28;20028;-63
2021/10/23 10:13:51;;;;;;;2.03;0.73;;;13.80;79.40;;;;;;4189167;28;20066;-62
2021/10/23 10:15:58;;;;;;;3.07;0.83;;;13.90;79.30;;;;;;4188926;28;20054;-63
2021/10/23 10:18:01;;;;;;;2.00;1.30;;;13.90;79.10;;;;;;4189128;28;20475;-63
2021/10/23 10:20:03;;;;;;;8.87;2.87;;;14.00;79.40;;;;;;4188768;28;20493;-63
2021/10/23 10:22:08;;;;;;;8.43;1.63;;;14.10;79.50;;;;;;4189133;28;20093;-62
2021/10/23 10:24:32;;;;;;;2.17;0.90;;;14.10;79.80;;;;;;4188892;28;20377;-63
2021/10/23 10:26:35;;;;;;;3.43;1.00;;;14.10;78.70;;;;;;4189243;28;20017;-62
2021/10/23 10:28:37;;;;;;;4.33;1.33;;;13.90;79.20;;;;;;4188680;28;20056;-63
2021/10/23 10:30:41;;;;;;;4.80;0.87;;;13.80;81.00;;;;;;4189577;28;20033;-62
2021/10/23 10:32:43;;;;;;;3.77;1.50;;;13.90;80.50;;;;;;4188120;28;20119;-62